createdAt,value
2018-11-20T00:01:03.753Z,31.33
2018-11-20T00:04:12.570Z,33.07
2018-11-20T00:10:02.938Z,32.10
2018-11-20T00:13:31.272Z,30.90
2018-11-20T00:16:40.021Z,32.67
2018-11-20T00:19:48.744Z,34.03
2018-11-20T00:25:58.983Z,35.00
2018-11-20T00:29:07.742Z,34.47
2018-11-20T00:32:16.473Z,33.03
2018-11-20T00:35:25.913Z,35.90
2018-11-20T00:38:24.649Z,34.57
2018-11-20T00:41:33.521Z,36.17
2018-11-20T00:50:08.830Z,36.47
2018-11-20T00:53:38.490Z,35.03
2018-11-20T00:56:51.492Z,36.73
2018-11-20T01:02:28.816Z,36.87
2018-11-20T01:08:26.926Z,38.60
2018-11-20T01:11:35.667Z,38.00
2018-11-20T01:17:27.317Z,35.50
2018-11-20T01:20:36.050Z,34.13
2018-11-20T01:29:10.990Z,35.30
2018-11-20T01:32:19.792Z,33.50
2018-11-20T01:35:28.578Z,33.50
2018-11-20T01:38:37.288Z,31.80
2018-11-20T01:41:46.024Z,32.23
2018-11-20T01:47:36.620Z,33.60
2018-11-20T01:51:24.091Z,29.40
2018-11-20T01:54:14.012Z,30.07
2018-11-20T01:57:22.756Z,26.87
2018-11-20T02:00:31.501Z,27.90
2018-11-20T02:03:40.199Z,27.00
2018-11-20T02:06:41.044Z,25.40
2018-11-20T02:09:49.783Z,27.77
2018-11-20T02:12:58.551Z,24.50
2018-11-20T02:16:07.301Z,24.17
2018-11-20T02:19:16.023Z,25.20
2018-11-20T02:22:05.312Z,25.67
2018-11-20T02:24:54.364Z,25.00
2018-11-20T02:28:22.717Z,23.50
2018-11-20T02:34:18.274Z,23.70
2018-11-20T02:37:27.034Z,22.27
2018-11-20T02:43:44.611Z,21.20
2018-11-20T02:55:04.311Z,24.00
2018-11-20T02:58:33.884Z,22.07
2018-11-20T03:01:42.630Z,23.93
2018-11-20T03:04:43.382Z,23.93
2018-11-20T03:07:52.106Z,20.53
2018-11-20T03:11:00.848Z,23.67
2018-11-20T03:13:50.704Z,22.10
2018-11-20T03:16:59.566Z,21.67
2018-11-20T03:20:08.364Z,23.70
2018-11-20T03:23:37.847Z,23.73
2018-11-20T03:26:35.147Z,23.40
2018-11-20T03:30:26.691Z,21.70
2018-11-20T03:36:17.593Z,24.60
2018-11-20T03:39:06.578Z,24.93
2018-11-20T03:45:20.027Z,23.57
2018-11-20T03:48:28.897Z,22.50
2018-11-20T03:51:37.619Z,23.13
2018-11-20T03:57:29.647Z,25.50
2018-11-20T04:00:56.355Z,25.20
2018-11-20T04:06:28.820Z,23.90
2018-11-20T04:09:37.602Z,26.07
2018-11-20T04:15:09.636Z,26.43
2018-11-20T04:21:00.849Z,25.77
2018-11-20T04:24:09.568Z,26.00
2018-11-20T04:27:18.322Z,24.97
2018-11-20T04:31:05.746Z,26.07
2018-11-20T04:33:57.217Z,25.50
2018-11-20T04:42:33.734Z,26.17
2018-11-20T04:48:30.295Z,29.20
2018-11-20T04:51:39.087Z,28.50
2018-11-20T04:54:47.853Z,27.53
2018-11-20T04:57:56.595Z,27.83
2018-11-20T05:01:17.420Z,26.73
2018-11-20T05:04:06.952Z,28.77
2018-11-20T05:09:50.737Z,29.30
2018-11-20T05:16:02.469Z,30.63
2018-11-20T05:27:18.274Z,37.37
2018-11-20T05:33:34.865Z,35.80
2018-11-20T05:36:43.620Z,39.83
2018-11-20T05:39:52.346Z,41.07
2018-11-20T05:43:01.075Z,40.20
2018-11-20T05:46:07.921Z,40.43
2018-11-20T05:48:57.176Z,41.77
2018-11-20T05:52:05.895Z,41.57
2018-11-20T06:00:53.705Z,38.77
2018-11-20T06:03:42.923Z,41.40
2018-11-20T06:06:51.636Z,37.90
2018-11-20T06:12:43.286Z,37.43
2018-11-20T06:15:42.420Z,35.20
2018-11-20T06:18:51.253Z,35.37
2018-11-20T06:21:59.888Z,34.70
2018-11-20T06:25:08.700Z,34.73
2018-11-20T06:31:20.177Z,33.10
2018-11-20T06:34:28.973Z,29.80
2018-11-20T06:37:37.686Z,30.40
2018-11-20T06:40:59.801Z,29.47
2018-11-20T06:43:50.357Z,26.97
2018-11-20T06:49:42.622Z,27.50
2018-11-20T06:52:51.401Z,27.70
2018-11-20T06:58:41.783Z,25.00
2018-11-20T07:01:50.573Z,24.20
2018-11-20T07:07:41.677Z,21.77
2018-11-20T07:10:50.302Z,23.80
2018-11-20T07:14:35.946Z,21.80
2018-11-20T07:17:49.385Z,19.90
2018-11-20T07:20:57.889Z,19.27
2018-11-20T07:24:00.397Z,21.27
2018-11-20T07:26:49.511Z,18.67
2018-11-20T07:29:58.340Z,18.20
2018-11-20T07:33:26.504Z,18.83
2018-11-20T07:36:35.323Z,18.10
2018-11-20T07:39:43.994Z,17.57
2018-11-20T07:45:48.821Z,17.03
2018-11-20T07:48:39.626Z,16.70
2018-11-20T07:51:28.760Z,16.13
2018-11-20T07:54:38.862Z,17.30
2018-11-20T07:57:49.613Z,15.73
2018-11-20T08:01:05.405Z,16.50
2018-11-20T08:04:15.555Z,15.20
2018-11-20T08:07:07.117Z,16.33
2018-11-20T08:09:58.281Z,15.20
2018-11-20T08:13:11.901Z,15.50
2018-11-20T08:19:28.309Z,15.57
2018-11-20T08:22:37.016Z,15.17
2018-11-20T08:26:04.741Z,15.87
2018-11-20T08:28:55.828Z,16.40
2018-11-20T08:32:04.624Z,14.80
2018-11-20T08:35:13.642Z,14.63
2018-11-20T08:38:18.079Z,13.87
2018-11-20T08:41:16.923Z,13.80
2018-11-20T08:47:47.862Z,13.20
2018-11-20T08:51:13.498Z,13.53
2018-11-20T08:54:33.428Z,13.77
2018-11-20T09:00:32.489Z,12.83
2018-11-20T09:09:05.933Z,12.40
2018-11-20T09:12:14.385Z,12.80
2018-11-20T09:18:32.049Z,12.67
2018-11-20T09:24:24.022Z,12.73
2018-11-20T09:32:57.654Z,13.37
2018-11-20T09:36:06.379Z,12.13
2018-11-20T09:39:15.651Z,14.90
2018-11-20T09:42:24.764Z,14.23
2018-11-20T09:45:53.842Z,14.33
2018-11-20T09:48:43.935Z,14.20
2018-11-20T09:51:52.701Z,14.30
2018-11-20T09:54:41.859Z,14.30
2018-11-20T10:00:34.196Z,13.83
2018-11-20T10:06:27.184Z,15.27
2018-11-20T10:09:29.268Z,14.10
2018-11-20T10:18:29.407Z,14.30
2018-11-20T10:24:31.790Z,15.70
2018-11-20T10:27:23.540Z,14.67
2018-11-20T10:31:05.848Z,13.23
2018-11-20T10:34:24.793Z,14.57
2018-11-20T10:38:15.776Z,13.70
2018-11-20T10:41:34.496Z,14.60
2018-11-20T10:44:28.203Z,13.80
2018-11-20T10:47:38.301Z,13.90
2018-11-20T10:51:25.709Z,13.60
2018-11-20T10:54:15.389Z,12.93
2018-11-20T11:04:05.552Z,14.10
2018-11-20T11:07:23.481Z,13.10
2018-11-20T11:13:42.652Z,13.20
2018-11-20T11:16:51.332Z,13.73
2018-11-20T11:23:21.746Z,15.60
2018-11-20T11:26:30.760Z,14.93
2018-11-20T11:29:58.963Z,14.00
2018-11-20T11:33:07.708Z,14.40
2018-11-20T11:36:16.451Z,14.30
2018-11-20T11:44:30.572Z,14.10
2018-11-20T11:53:04.318Z,13.30
2018-11-20T11:56:54.896Z,13.10
2018-11-20T12:00:12.344Z,13.40
2018-11-20T12:03:25.385Z,12.13
2018-11-20T12:06:15.637Z,13.50
2018-11-20T12:09:28.969Z,12.23
2018-11-20T12:12:18.646Z,12.50
2018-11-20T12:15:38.782Z,12.30
2018-11-20T12:18:29.843Z,12.27
2018-11-20T12:22:01.749Z,12.37
2018-11-20T12:24:52.308Z,14.13
2018-11-20T12:28:20.727Z,12.37
2018-11-20T12:31:34.906Z,11.67
2018-11-20T12:34:57.339Z,11.10
2018-11-20T12:47:02.013Z,11.90
2018-11-20T12:53:21.469Z,11.63
2018-11-20T12:56:43.396Z,14.28
2018-11-20T12:59:53.023Z,11.17
2018-11-20T13:09:13.531Z,12.60
2018-11-20T13:12:44.643Z,11.47
2018-11-20T13:16:05.610Z,12.47
2018-11-20T13:19:15.140Z,11.80
2018-11-20T13:22:25.604Z,12.50
2018-11-20T13:25:48.363Z,11.37
2018-11-20T13:29:16.887Z,11.80
2018-11-20T13:38:00.716Z,10.43
2018-11-20T13:41:24.541Z,12.60
2018-11-20T13:44:15.205Z,11.80
2018-11-20T13:51:06.517Z,13.13
2018-11-20T13:54:19.705Z,11.47
2018-11-20T13:57:29.544Z,11.70
2018-11-20T14:00:56.844Z,11.17
2018-11-20T14:04:12.268Z,11.23
2018-11-20T14:07:21.085Z,12.20
2018-11-20T14:14:04.647Z,12.40
2018-11-20T14:19:55.291Z,14.37
2018-11-20T14:22:44.392Z,13.07
2018-11-20T14:25:53.958Z,12.87
2018-11-20T14:28:43.510Z,12.80
2018-11-20T14:31:52.218Z,14.00
2018-11-20T14:35:00.937Z,13.57
2018-11-20T14:38:29.407Z,14.17
2018-11-20T14:41:30.861Z,15.10
2018-11-20T14:44:22.258Z,18.90
2018-11-20T14:47:31.035Z,14.63
2018-11-20T14:50:57.879Z,14.90
2018-11-20T14:53:48.447Z,14.00
2018-11-20T14:59:22.459Z,14.10
2018-11-20T15:02:31.186Z,14.07
2018-11-20T15:05:54.648Z,15.67
2018-11-20T15:11:30.498Z,14.63
2018-11-20T15:14:32.018Z,15.40
2018-11-20T15:17:40.804Z,16.70
2018-11-20T15:24:36.298Z,17.40
2018-11-20T15:30:07.456Z,19.77
2018-11-20T15:33:36.411Z,20.77
2018-11-20T15:36:45.207Z,20.33
2018-11-20T15:39:53.926Z,24.80
2018-11-20T15:43:22.336Z,19.77
2018-11-20T15:46:31.060Z,16.67
2018-11-20T15:49:39.772Z,19.37
2018-11-20T15:57:55.674Z,18.33
2018-11-20T16:04:01.310Z,17.97
2018-11-20T16:07:10.049Z,18.60
2018-11-20T16:10:18.890Z,18.97
2018-11-20T16:13:27.676Z,19.00
2018-11-20T16:16:25.410Z,17.67
2018-11-20T16:24:58.716Z,20.33
2018-11-20T16:33:52.766Z,20.37
2018-11-20T16:36:31.040Z,20.70
2018-11-20T16:39:39.686Z,20.70
2018-11-20T16:48:14.660Z,20.77
2018-11-20T16:51:23.490Z,19.83
2018-11-20T16:54:12.987Z,20.40
2018-11-20T16:57:02.399Z,25.55
2018-11-20T17:00:11.689Z,26.37
2018-11-20T17:06:03.691Z,21.47
2018-11-20T17:08:52.791Z,18.87
2018-11-20T17:14:34.559Z,19.43
2018-11-20T17:26:19.201Z,19.60
2018-11-20T17:32:12.173Z,19.87
2018-11-20T17:35:21.218Z,21.63
2018-11-20T17:38:10.331Z,20.10
2018-11-20T17:41:19.102Z,19.03
2018-11-20T17:44:27.922Z,20.43
2018-11-20T17:47:36.705Z,20.10
2018-11-20T17:51:04.857Z,22.20
2018-11-20T18:02:19.214Z,19.23
2018-11-20T18:05:27.974Z,18.53
2018-11-20T18:11:19.179Z,18.33
2018-11-20T18:14:27.984Z,19.23
2018-11-20T18:17:36.699Z,15.80
2018-11-20T18:20:58.571Z,15.73
2018-11-20T18:32:32.162Z,16.57
2018-11-20T18:36:00.295Z,17.67
2018-11-20T18:39:09.035Z,18.10
2018-11-20T18:45:01.529Z,15.27
2018-11-20T18:48:29.810Z,15.07
2018-11-20T18:54:12.047Z,15.10
2018-11-20T18:57:20.824Z,14.23
2018-11-20T19:00:09.951Z,15.33
2018-11-20T19:06:03.475Z,15.40
2018-11-20T19:12:03.364Z,16.10
2018-11-20T19:24:00.640Z,18.07
2018-11-20T19:27:09.430Z,16.37
2018-11-20T19:36:11.708Z,15.50
2018-11-20T19:39:00.807Z,14.90
2018-11-20T19:47:37.744Z,14.00
2018-11-20T19:50:34.454Z,15.17
2018-11-20T19:53:44.297Z,15.53
2018-11-20T19:56:52.218Z,15.20
2018-11-20T20:00:01.062Z,14.20
2018-11-20T20:06:11.811Z,15.33
2018-11-20T20:09:20.774Z,15.70
2018-11-20T20:15:22.001Z,16.83
2018-11-20T20:18:23.576Z,14.70
2018-11-20T20:23:55.000Z,17.77
2018-11-20T20:27:31.688Z,16.33
2018-11-20T20:33:24.877Z,19.50
2018-11-20T20:36:33.618Z,18.03
2018-11-20T20:39:54.588Z,18.70
2018-11-20T20:42:45.866Z,18.90
2018-11-20T20:45:54.594Z,20.00
2018-11-20T20:49:03.314Z,20.20
2018-11-20T20:52:23.944Z,18.10
2018-11-20T20:55:17.908Z,17.23
2018-11-20T20:58:20.050Z,19.37
2018-11-20T21:01:51.098Z,18.40
2018-11-20T21:07:43.395Z,17.70
2018-11-20T21:10:52.479Z,18.47
2018-11-20T21:14:01.408Z,18.87
2018-11-20T21:17:29.703Z,17.73
2018-11-20T21:20:51.092Z,19.30
2018-11-20T21:23:41.765Z,21.07
2018-11-20T21:26:44.746Z,23.47
2018-11-20T21:32:38.171Z,20.00
2018-11-20T21:36:02.650Z,19.07
2018-11-20T21:39:11.568Z,16.70
2018-11-20T21:47:44.398Z,18.83
2018-11-20T21:56:30.417Z,20.80
2018-11-20T22:13:21.140Z,22.27
2018-11-20T22:16:29.855Z,21.07
2018-11-20T22:27:45.224Z,21.33
2018-11-20T22:30:54.003Z,22.57
2018-11-20T22:33:43.418Z,22.23
2018-11-20T22:39:35.274Z,22.20
2018-11-20T22:42:44.003Z,23.00
2018-11-20T22:45:49.511Z,22.00
2018-11-20T22:48:47.996Z,22.80
2018-11-20T22:51:56.724Z,22.70
2018-11-20T22:57:48.510Z,22.60
2018-11-20T23:00:54.273Z,22.63
2018-11-20T23:06:24.424Z,20.63
2018-11-20T23:09:14.021Z,20.27
2018-11-20T23:12:03.813Z,22.17
2018-11-20T23:20:36.982Z,18.97
2018-11-20T23:23:26.696Z,20.40
2018-11-20T23:26:16.414Z,20.47
2018-11-20T23:35:12.746Z,21.77
2018-11-20T23:43:37.560Z,23.80
2018-11-20T23:46:27.276Z,21.70
2018-11-20T23:49:16.957Z,23.07
2018-11-20T23:54:48.656Z,32.83
